createdAt,value
2023-03-01T00:01:42.130Z,78.31
2023-03-01T00:04:09.905Z,78.41
2023-03-01T00:06:38.364Z,78.46
2023-03-01T00:09:06.710Z,79.06
2023-03-01T00:11:35.623Z,78.75
2023-03-01T00:14:05.966Z,78.14
2023-03-01T00:16:41.444Z,77.94
2023-03-01T00:19:14.052Z,78.63
2023-03-01T00:21:42.149Z,78.78
2023-03-01T00:24:10.640Z,78.18
2023-03-01T00:26:38.982Z,78.03
2023-03-01T00:29:06.884Z,78.81
2023-03-01T00:31:35.846Z,77.25
2023-03-01T00:34:05.665Z,76.46
2023-03-01T00:36:36.945Z,77.11
2023-03-01T00:39:08.561Z,77.61
2023-03-01T00:41:36.274Z,78.87
2023-03-01T00:44:04.628Z,77.40
2023-03-01T00:46:33.480Z,77.05
2023-03-01T00:49:03.119Z,76.70
2023-03-01T00:51:31.449Z,76.38
2023-03-01T00:54:02.208Z,76.61
2023-03-01T00:56:31.253Z,76.11
2023-03-01T00:58:59.433Z,76.11
2023-03-01T01:01:33.025Z,76.55
2023-03-01T01:04:04.513Z,76.04
2023-03-01T01:06:36.186Z,76.15
2023-03-01T01:09:07.568Z,75.85
2023-03-01T01:11:37.446Z,76.15
2023-03-01T01:14:05.523Z,76.71
2023-03-01T01:16:33.785Z,76.12
2023-03-01T01:19:02.457Z,76.57
2023-03-01T01:21:30.446Z,76.47
2023-03-01T01:23:58.563Z,76.76
2023-03-01T01:26:31.978Z,76.61
2023-03-01T01:29:01.103Z,76.45
2023-03-01T01:31:29.846Z,76.66
2023-03-01T01:33:59.625Z,76.58
2023-03-01T01:36:28.556Z,76.44
2023-03-01T01:38:57.229Z,76.59
2023-03-01T01:41:26.449Z,76.89
2023-03-01T01:44:19.167Z,77.25
2023-03-01T01:47:14.033Z,77.49
2023-03-01T01:49:48.401Z,77.99
2023-03-01T01:52:23.566Z,77.45
2023-03-01T01:55:03.285Z,77.72
2023-03-01T01:57:41.715Z,77.55
2023-03-01T02:00:14.250Z,77.17
2023-03-01T02:02:44.180Z,77.22
2023-03-01T02:05:30.218Z,77.67
2023-03-01T02:07:59.919Z,77.93
2023-03-01T02:10:29.124Z,76.89
2023-03-01T02:12:57.092Z,77.44
2023-03-01T02:15:25.257Z,77.26
2023-03-01T02:17:54.360Z,77.27
2023-03-01T02:20:53.223Z,77.14
2023-03-01T02:23:21.155Z,76.81
2023-03-01T02:26:25.930Z,77.15
2023-03-01T02:28:53.929Z,76.74
2023-03-01T02:31:41.675Z,77.07
2023-03-01T02:34:17.107Z,76.71
2023-03-01T02:36:57.167Z,76.74
2023-03-01T02:39:30.753Z,77.14
2023-03-01T02:41:59.940Z,78.40
2023-03-01T02:44:27.745Z,77.22
2023-03-01T02:46:59.105Z,77.58
2023-03-01T02:49:33.480Z,77.22
2023-03-01T02:52:47.213Z,77.27
2023-03-01T02:55:19.124Z,77.39
2023-03-01T02:57:51.681Z,77.26
2023-03-01T03:00:27.737Z,77.21
2023-03-01T03:02:57.927Z,77.25
2023-03-01T03:05:29.763Z,77.17
2023-03-01T03:08:01.176Z,77.05
2023-03-01T03:10:33.270Z,77.59
2023-03-01T03:13:07.029Z,77.57
2023-03-01T03:15:39.439Z,77.49
2023-03-01T03:18:11.116Z,77.63
2023-03-01T03:20:41.619Z,77.53
2023-03-01T03:23:10.138Z,77.25
2023-03-01T03:25:38.812Z,77.76
2023-03-01T03:28:11.087Z,77.93
2023-03-01T03:30:41.230Z,77.46
2023-03-01T03:33:13.117Z,77.54
2023-03-01T03:35:47.903Z,77.83
2023-03-01T03:38:18.255Z,77.58
2023-03-01T03:40:49.640Z,78.05
2023-03-01T03:43:23.244Z,77.60
2023-03-01T03:45:52.416Z,76.99
2023-03-01T03:48:20.592Z,76.49
2023-03-01T03:50:53.957Z,76.66
2023-03-01T03:53:24.386Z,76.82
2023-03-01T03:55:52.910Z,77.06
2023-03-01T03:58:24.274Z,76.52
2023-03-01T04:00:54.903Z,76.55
2023-03-01T04:03:24.657Z,76.77
2023-03-01T04:05:52.580Z,77.53
2023-03-01T04:08:22.280Z,77.63
2023-03-01T04:10:53.549Z,76.90
2023-03-01T04:13:23.520Z,77.16
2023-03-01T04:15:51.764Z,77.54
2023-03-01T04:18:21.600Z,77.72
2023-03-01T04:20:49.618Z,77.59
2023-03-01T04:23:22.747Z,77.33
2023-03-01T04:25:56.681Z,77.14
2023-03-01T04:28:37.315Z,77.51
2023-03-01T04:31:15.085Z,77.10
2023-03-01T04:33:45.741Z,78.08
2023-03-01T04:36:15.555Z,78.09
2023-03-01T04:38:43.443Z,77.55
2023-03-01T04:41:12.873Z,77.90
2023-03-01T04:43:40.704Z,77.87
2023-03-01T04:46:13.335Z,77.55
2023-03-01T04:48:44.890Z,78.06
2023-03-01T04:51:16.571Z,78.21
2023-03-01T04:53:45.403Z,78.04
2023-03-01T04:56:14.832Z,77.47
2023-03-01T04:58:42.825Z,77.88
2023-03-01T05:01:17.572Z,78.07
2023-03-01T05:03:47.502Z,78.00
2023-03-01T05:06:16.356Z,78.50
2023-03-01T05:08:44.843Z,78.24
2023-03-01T05:11:13.151Z,78.22
2023-03-01T05:13:41.527Z,78.62
2023-03-01T05:16:13.363Z,78.58
2023-03-01T05:18:41.901Z,78.09
2023-03-01T05:21:13.393Z,79.01
2023-03-01T05:23:41.802Z,77.75
2023-03-01T05:26:25.819Z,77.47
2023-03-01T05:28:59.682Z,77.16
2023-03-01T05:31:28.584Z,77.46
2023-03-01T05:33:56.229Z,77.93
2023-03-01T05:36:23.844Z,77.78
2023-03-01T05:38:52.023Z,78.09
2023-03-01T05:41:19.763Z,77.58
2023-03-01T05:43:47.371Z,77.41
2023-03-01T05:46:16.210Z,77.34
2023-03-01T05:48:44.640Z,78.26
2023-03-01T05:51:13.037Z,77.67
2023-03-01T05:53:40.705Z,77.56
2023-03-01T05:56:08.643Z,77.75
2023-03-01T05:58:36.278Z,77.18
2023-03-01T06:01:04.027Z,77.49
2023-03-01T06:03:31.701Z,77.62
2023-03-01T06:05:59.662Z,77.95
2023-03-01T06:08:28.351Z,77.82
2023-03-01T06:10:56.798Z,77.14
2023-03-01T06:13:25.368Z,77.57
2023-03-01T06:15:53.185Z,77.34
2023-03-01T06:18:20.991Z,77.39
2023-03-01T06:20:57.014Z,77.37
2023-03-01T06:23:25.078Z,77.21
2023-03-01T06:25:53.253Z,77.22
2023-03-01T06:28:20.909Z,77.42
2023-03-01T06:30:48.645Z,77.17
2023-03-01T06:33:16.349Z,76.95
2023-03-01T06:35:44.178Z,77.01
2023-03-01T06:38:11.926Z,76.87
2023-03-01T06:40:39.585Z,76.87
2023-03-01T06:43:08.566Z,77.04
2023-03-01T06:45:36.385Z,77.46
2023-03-01T06:48:08.553Z,76.85
2023-03-01T06:50:37.009Z,76.39
2023-03-01T06:53:05.590Z,76.32
2023-03-01T06:55:33.448Z,76.05
2023-03-01T06:58:03.229Z,75.76
2023-03-01T07:00:31.413Z,76.09
2023-03-01T07:03:01.408Z,75.60
2023-03-01T07:05:30.551Z,75.64
2023-03-01T07:07:58.477Z,75.46
2023-03-01T07:10:26.230Z,75.26
2023-03-01T07:12:58.522Z,75.50
2023-03-01T07:15:28.017Z,75.15
2023-03-01T07:17:57.071Z,74.78
2023-03-01T07:20:26.235Z,74.43
2023-03-01T07:22:56.123Z,74.67
2023-03-01T07:25:23.761Z,74.68
2023-03-01T07:27:53.495Z,73.91
2023-03-01T07:30:22.387Z,72.96
2023-03-01T07:32:50.473Z,73.23
2023-03-01T07:35:18.821Z,72.74
2023-03-01T07:37:46.716Z,73.05
2023-03-01T07:40:14.631Z,72.05
2023-03-01T07:42:42.445Z,72.20
2023-03-01T07:45:11.114Z,71.74
2023-03-01T07:47:39.788Z,70.90
2023-03-01T07:50:08.094Z,70.41
2023-03-01T07:52:35.744Z,69.17
2023-03-01T07:55:03.696Z,69.82
2023-03-01T07:57:31.408Z,69.18
2023-03-01T07:59:59.034Z,67.79
2023-03-01T08:02:26.659Z,67.80
2023-03-01T08:04:54.261Z,66.49
2023-03-01T08:07:21.963Z,65.62
2023-03-01T08:09:49.896Z,65.82
2023-03-01T08:12:17.865Z,64.38
2023-03-01T08:14:45.644Z,64.31
2023-03-01T08:17:15.329Z,63.95
2023-03-01T08:19:43.842Z,62.74
2023-03-01T08:22:11.774Z,61.76
2023-03-01T08:24:39.451Z,61.85
2023-03-01T08:27:07.163Z,59.90
2023-03-01T08:29:35.168Z,61.15
2023-03-01T08:32:02.991Z,61.65
2023-03-01T08:34:32.152Z,59.88
2023-03-01T08:36:59.887Z,58.92
2023-03-01T08:39:28.220Z,57.81
2023-03-01T08:41:56.018Z,53.84
2023-03-01T08:44:23.711Z,53.36
2023-03-01T08:46:52.426Z,54.02
2023-03-01T08:49:21.509Z,51.63
2023-03-01T08:51:49.288Z,51.96
2023-03-01T08:54:20.914Z,51.56
2023-03-01T08:56:49.517Z,51.24
2023-03-01T08:59:18.449Z,49.90
2023-03-01T09:01:46.399Z,50.12
2023-03-01T09:04:16.095Z,50.73
2023-03-01T09:06:44.178Z,50.40
2023-03-01T09:09:16.937Z,49.61
2023-03-01T09:11:47.159Z,48.02
2023-03-01T09:14:15.106Z,48.23
2023-03-01T09:16:43.421Z,48.67
2023-03-01T09:19:12.042Z,48.58
2023-03-01T09:21:41.276Z,48.28
2023-03-01T09:24:15.737Z,47.65
2023-03-01T09:26:43.822Z,47.56
2023-03-01T09:29:11.486Z,47.82
2023-03-01T09:31:39.635Z,47.67
2023-03-01T09:34:08.199Z,47.65
2023-03-01T09:36:36.492Z,48.46
2023-03-01T09:39:06.862Z,48.24
2023-03-01T09:41:45.988Z,48.11
2023-03-01T09:44:19.308Z,48.02
2023-03-01T09:46:47.457Z,46.97
2023-03-01T09:49:22.277Z,46.80
2023-03-01T09:51:57.244Z,48.27
2023-03-01T09:54:25.133Z,48.48
2023-03-01T09:57:20.352Z,48.99
2023-03-01T10:00:12.944Z,48.89
2023-03-01T10:02:53.608Z,49.34
2023-03-01T10:05:53.574Z,49.50
2023-03-01T10:09:01.785Z,49.28
2023-03-01T10:11:33.342Z,49.34
2023-03-01T10:14:15.003Z,49.58
2023-03-01T10:17:10.594Z,49.23
2023-03-01T10:19:42.499Z,49.69
2023-03-01T10:22:29.397Z,48.87
2023-03-01T10:25:00.859Z,47.13
2023-03-01T10:27:47.660Z,46.35
2023-03-01T10:30:33.426Z,46.71
2023-03-01T10:33:03.057Z,46.40
2023-03-01T10:35:34.958Z,45.91
2023-03-01T10:38:11.846Z,45.35
2023-03-01T10:41:08.010Z,43.77
2023-03-01T10:43:44.828Z,43.30
2023-03-01T10:46:26.611Z,43.71
2023-03-01T10:49:23.955Z,44.30
2023-03-01T10:51:53.573Z,43.72
2023-03-01T10:54:31.159Z,43.20
2023-03-01T10:57:01.588Z,43.54
2023-03-01T10:59:38.081Z,42.59
2023-03-01T11:02:26.886Z,42.99
2023-03-01T11:04:57.506Z,43.06
2023-03-01T11:07:25.254Z,43.01
2023-03-01T11:09:53.457Z,42.72
2023-03-01T11:12:22.187Z,41.83
2023-03-01T11:14:52.468Z,41.81
2023-03-01T11:17:31.631Z,41.65
2023-03-01T11:20:15.806Z,42.78
2023-03-01T11:22:53.340Z,42.74
2023-03-01T11:25:26.028Z,43.50
2023-03-01T11:27:55.860Z,43.15
2023-03-01T11:30:27.638Z,42.72
2023-03-01T11:33:06.583Z,42.20
2023-03-01T11:35:39.042Z,42.20
2023-03-01T11:38:13.072Z,42.02
2023-03-01T11:40:45.553Z,42.82
2023-03-01T11:43:25.099Z,42.13
2023-03-01T11:46:11.845Z,41.93
2023-03-01T11:48:49.918Z,42.46
2023-03-01T11:51:26.631Z,42.72
2023-03-01T11:54:00.253Z,43.47
2023-03-01T11:56:42.166Z,43.41
2023-03-01T11:59:21.858Z,43.51
2023-03-01T12:02:08.545Z,42.67
2023-03-01T12:05:03.880Z,43.19
2023-03-01T12:08:14.707Z,44.25
2023-03-01T12:10:58.096Z,45.05
2023-03-01T12:13:50.448Z,45.43
2023-03-01T12:16:47.171Z,45.38
2023-03-01T12:19:52.627Z,45.06
2023-03-01T12:22:31.232Z,45.19
2023-03-01T12:25:17.484Z,45.52
2023-03-01T12:28:19.184Z,45.71
2023-03-01T12:31:07.314Z,45.73
2023-03-01T12:33:43.894Z,45.35
2023-03-01T12:36:39.838Z,45.61
2023-03-01T12:39:25.090Z,46.54
2023-03-01T12:42:08.353Z,46.72
2023-03-01T12:44:56.456Z,47.47
2023-03-01T12:47:36.505Z,47.67
2023-03-01T12:50:19.740Z,48.35
2023-03-01T12:52:52.917Z,49.04
2023-03-01T12:55:29.472Z,48.84
2023-03-01T12:58:01.509Z,48.79
2023-03-01T13:00:37.362Z,49.02
2023-03-01T13:03:29.258Z,49.55
2023-03-01T13:06:09.138Z,49.52
2023-03-01T13:09:02.901Z,49.70
2023-03-01T13:11:30.893Z,49.92
2023-03-01T13:14:26.389Z,49.99
2023-03-01T13:16:55.081Z,49.91
2023-03-01T13:19:25.994Z,50.24
2023-03-01T13:23:22.471Z,51.00
2023-03-01T13:25:59.687Z,50.79
2023-03-01T13:28:45.948Z,51.50
2023-03-01T13:31:16.295Z,51.84
2023-03-01T13:33:52.797Z,52.51
2023-03-01T13:36:33.581Z,52.98
2023-03-01T13:39:04.594Z,53.25
2023-03-01T13:41:44.226Z,53.33
2023-03-01T13:44:24.760Z,54.03
2023-03-01T13:47:18.432Z,54.37
2023-03-01T13:50:03.657Z,54.52
2023-03-01T13:52:38.012Z,55.48
2023-03-01T13:55:14.783Z,55.26
2023-03-01T13:57:46.808Z,56.45
2023-03-01T14:00:33.840Z,55.87
2023-03-01T14:03:07.051Z,55.99
2023-03-01T14:05:37.063Z,55.85
2023-03-01T14:21:02.185Z,57.20
2023-03-01T14:23:30.573Z,57.66
2023-03-01T14:25:58.988Z,58.46
2023-03-01T14:28:27.319Z,58.40
2023-03-01T14:30:57.541Z,58.80
2023-03-01T14:33:26.688Z,58.42
2023-03-01T14:36:01.764Z,58.78
2023-03-01T14:38:41.380Z,59.16
2023-03-01T14:41:18.890Z,59.16
2023-03-01T14:44:02.190Z,59.69
2023-03-01T14:46:40.884Z,59.58
2023-03-01T14:49:20.018Z,59.58
2023-03-01T14:51:54.598Z,59.49
2023-03-01T14:54:27.796Z,60.32
2023-03-01T14:57:00.783Z,60.62
2023-03-01T14:59:29.520Z,59.99
2023-03-01T15:01:59.205Z,59.98
2023-03-01T15:04:28.592Z,60.06
2023-03-01T15:07:05.797Z,60.19
2023-03-01T15:09:36.211Z,60.36
2023-03-01T15:12:30.080Z,60.38
2023-03-01T15:15:04.175Z,60.59
2023-03-01T15:17:39.154Z,60.58
2023-03-01T15:20:17.710Z,61.47
2023-03-01T15:22:49.731Z,61.28
2023-03-01T15:25:23.853Z,61.53
2023-03-01T15:27:54.489Z,61.63
2023-03-01T15:30:27.456Z,61.38
2023-03-01T15:33:21.828Z,61.37
2023-03-01T15:35:54.536Z,62.26
2023-03-01T15:38:55.596Z,62.53
2023-03-01T15:41:48.274Z,63.29
2023-03-01T15:44:41.638Z,62.37
2023-03-01T15:47:27.517Z,62.99
2023-03-01T15:50:02.338Z,64.06
2023-03-01T15:52:41.579Z,63.75
2023-03-01T15:55:18.698Z,64.22
2023-03-01T15:57:47.302Z,64.27
2023-03-01T16:00:16.225Z,64.74
2023-03-01T16:02:45.315Z,64.72
2023-03-01T16:05:21.830Z,64.19
2023-03-01T16:07:49.884Z,64.68
2023-03-01T16:10:18.574Z,64.58
2023-03-01T16:12:48.379Z,65.21
2023-03-01T16:15:23.931Z,65.76
2023-03-01T16:17:53.026Z,65.89
2023-03-01T16:20:28.659Z,65.93
2023-03-01T16:23:02.473Z,66.14
2023-03-01T16:25:31.088Z,66.40
2023-03-01T16:28:01.678Z,66.47
2023-03-01T16:30:29.527Z,66.56
2023-03-01T16:32:57.204Z,67.03
2023-03-01T16:35:25.007Z,67.65
2023-03-01T16:37:54.904Z,67.84
2023-03-01T16:40:25.651Z,67.93
2023-03-01T16:42:56.238Z,67.49
2023-03-01T16:45:28.972Z,68.57
2023-03-01T16:47:56.842Z,68.35
2023-03-01T16:50:24.515Z,68.24
2023-03-01T16:52:52.309Z,68.84
2023-03-01T16:55:19.993Z,69.08
2023-03-01T16:57:47.726Z,69.09
2023-03-01T17:00:15.758Z,69.47
2023-03-01T17:02:43.511Z,69.41
2023-03-01T17:05:12.798Z,69.88
2023-03-01T17:07:40.889Z,69.92
2023-03-01T17:10:10.942Z,70.70
2023-03-01T17:12:39.145Z,71.41
2023-03-01T17:15:07.719Z,71.16
2023-03-01T17:17:35.680Z,71.27
2023-03-01T17:20:04.944Z,71.15
2023-03-01T17:22:32.849Z,72.04
2023-03-01T17:25:01.202Z,72.38
2023-03-01T17:27:29.554Z,71.89
2023-03-01T17:29:57.418Z,71.85
2023-03-01T17:32:25.318Z,71.69
2023-03-01T17:34:53.269Z,72.68
2023-03-01T17:37:21.229Z,73.65
2023-03-01T17:39:48.925Z,72.34
2023-03-01T17:42:17.015Z,73.18
2023-03-01T17:44:44.890Z,73.33
2023-03-01T17:47:12.774Z,72.85
2023-03-01T17:49:42.988Z,72.69
2023-03-01T17:52:10.686Z,73.49
2023-03-01T17:54:38.386Z,73.44
2023-03-01T17:57:06.645Z,74.13
2023-03-01T17:59:37.143Z,74.12
2023-03-01T18:02:04.985Z,73.92
2023-03-01T18:04:32.926Z,74.33
2023-03-01T18:07:01.001Z,74.77
2023-03-01T18:09:28.914Z,74.07
2023-03-01T18:11:57.175Z,74.82
2023-03-01T18:14:25.904Z,75.31
2023-03-01T18:16:53.857Z,75.55
2023-03-01T18:19:21.886Z,76.55
2023-03-01T18:21:49.751Z,75.98
2023-03-01T18:24:17.390Z,75.62
2023-03-01T18:26:45.279Z,75.35
2023-03-01T18:29:12.928Z,75.98
2023-03-01T18:31:40.572Z,76.11
2023-03-01T18:34:11.792Z,75.61
2023-03-01T18:36:41.448Z,75.33
2023-03-01T18:39:09.196Z,76.64
2023-03-01T18:41:37.660Z,77.82
2023-03-01T18:44:06.540Z,76.52
2023-03-01T18:46:37.777Z,77.33
2023-03-01T18:49:07.474Z,77.55
2023-03-01T18:51:35.766Z,77.22
2023-03-01T18:54:04.002Z,76.88
2023-03-01T18:56:33.360Z,76.15
2023-03-01T18:59:02.433Z,78.23
2023-03-01T19:01:33.013Z,77.50
2023-03-01T19:04:02.884Z,77.43
2023-03-01T19:06:34.237Z,77.21
2023-03-01T19:09:02.893Z,76.14
2023-03-01T19:11:33.487Z,76.77
2023-03-01T19:14:02.341Z,76.06
2023-03-01T19:16:32.621Z,78.09
2023-03-01T19:19:03.698Z,77.61
2023-03-01T19:21:32.814Z,78.56
2023-03-01T19:24:02.452Z,78.97
2023-03-01T19:26:31.789Z,77.81
2023-03-01T19:29:00.378Z,79.05
2023-03-01T19:31:30.704Z,78.65
2023-03-01T19:34:10.519Z,78.34
2023-03-01T19:36:43.275Z,79.01
2023-03-01T19:39:13.633Z,78.68
2023-03-01T19:41:43.106Z,78.83
2023-03-01T19:44:11.716Z,78.93
2023-03-01T19:46:39.912Z,79.04
2023-03-01T19:49:08.355Z,78.92
2023-03-01T19:51:38.820Z,79.19
2023-03-01T19:54:08.016Z,79.42
2023-03-01T19:56:35.985Z,79.42
2023-03-01T19:59:04.962Z,79.40
2023-03-01T20:01:34.884Z,79.30
2023-03-01T20:04:03.866Z,78.88
2023-03-01T20:06:32.126Z,79.03
2023-03-01T20:09:08.955Z,80.01
2023-03-01T20:11:43.708Z,79.67
2023-03-01T20:14:12.344Z,79.25
2023-03-01T20:16:40.390Z,78.61
2023-03-01T20:19:08.558Z,78.75
2023-03-01T20:21:36.329Z,78.95
2023-03-01T20:24:04.350Z,79.63
2023-03-01T20:26:33.254Z,79.04
2023-03-01T20:29:01.100Z,78.68
2023-03-01T20:31:29.884Z,80.18
2023-03-01T20:33:59.753Z,80.11
2023-03-01T20:36:28.177Z,79.88
2023-03-01T20:38:56.491Z,80.34
2023-03-01T20:41:26.709Z,80.19
2023-03-01T20:43:56.461Z,80.17
2023-03-01T20:46:26.962Z,80.44
2023-03-01T20:48:54.953Z,80.43
2023-03-01T20:51:22.654Z,79.94
2023-03-01T20:53:50.719Z,79.85
2023-03-01T20:56:20.578Z,79.58
2023-03-01T20:59:09.323Z,79.22
2023-03-01T21:01:39.874Z,78.52
2023-03-01T21:04:07.695Z,78.64
2023-03-01T21:06:36.311Z,79.24
2023-03-01T21:09:04.789Z,78.90
2023-03-01T21:11:32.550Z,78.61
2023-03-01T21:14:00.778Z,78.14
2023-03-01T21:16:28.671Z,78.43
2023-03-01T21:19:01.660Z,78.55
2023-03-01T21:21:29.515Z,79.12
2023-03-01T21:23:57.309Z,78.67
2023-03-01T21:26:27.132Z,79.12
2023-03-01T21:28:56.853Z,79.15
2023-03-01T21:31:31.924Z,79.49
2023-03-01T21:34:04.053Z,79.78
2023-03-01T21:36:33.297Z,79.33
2023-03-01T21:39:02.384Z,79.38
2023-03-01T21:41:32.900Z,79.33
2023-03-01T21:44:03.109Z,79.70
2023-03-01T21:46:36.684Z,79.98
2023-03-01T21:49:05.830Z,80.65
2023-03-01T21:51:34.167Z,80.62
2023-03-01T21:54:02.331Z,80.48
2023-03-01T21:56:34.440Z,80.53
2023-03-01T21:59:02.401Z,80.87
2023-03-01T22:01:30.320Z,80.90
2023-03-01T22:04:00.244Z,81.15
2023-03-01T22:06:35.163Z,81.26
2023-03-01T22:09:08.989Z,81.43
2023-03-01T22:11:39.550Z,81.09
2023-03-01T22:14:08.269Z,81.29
2023-03-01T22:16:36.821Z,81.12
2023-03-01T22:19:06.417Z,81.32
2023-03-01T22:21:35.098Z,80.94
2023-03-01T22:24:03.996Z,80.68
2023-03-01T22:26:38.332Z,80.76
2023-03-01T22:29:12.679Z,81.18
2023-03-01T22:31:41.433Z,81.42
2023-03-01T22:34:10.276Z,81.24
2023-03-01T22:36:39.351Z,81.23
2023-03-01T22:39:07.558Z,81.45
2023-03-01T22:41:43.142Z,81.30
2023-03-01T22:44:20.644Z,81.57
2023-03-01T22:46:48.838Z,81.03
2023-03-01T22:49:17.303Z,80.48
2023-03-01T22:51:47.510Z,81.28
2023-03-01T22:54:20.405Z,81.37
2023-03-01T22:56:48.592Z,81.69
2023-03-01T22:59:23.110Z,81.47
2023-03-01T23:01:52.757Z,82.55
2023-03-01T23:04:22.013Z,81.92
2023-03-01T23:06:51.557Z,81.67
2023-03-01T23:09:23.463Z,81.91
2023-03-01T23:11:52.189Z,82.97
2023-03-01T23:14:21.420Z,83.09
2023-03-01T23:16:50.476Z,82.82
2023-03-01T23:19:18.933Z,83.08
2023-03-01T23:21:49.992Z,82.76
2023-03-01T23:24:19.326Z,82.92
2023-03-01T23:26:51.848Z,82.88
2023-03-01T23:29:20.286Z,82.74
2023-03-01T23:31:48.849Z,82.74
2023-03-01T23:34:16.547Z,83.10
2023-03-01T23:36:45.277Z,82.38
2023-03-01T23:39:14.267Z,82.53
2023-03-01T23:41:42.184Z,82.57
2023-03-01T23:44:16.039Z,82.89
2023-03-01T23:46:44.974Z,83.24
2023-03-01T23:49:14.805Z,82.99
2023-03-01T23:51:50.137Z,83.02
2023-03-01T23:54:20.159Z,82.91
2023-03-01T23:56:47.959Z,82.93
2023-03-01T23:59:18.489Z,83.06
